createdAt,value
2022-08-24T00:01:55.795Z,8.00
2022-08-24T00:04:22.285Z,9.52
2022-08-24T00:06:49.846Z,9.77
2022-08-24T00:09:16.533Z,8.88
2022-08-24T00:11:42.978Z,9.32
2022-08-24T00:14:11.374Z,7.13
2022-08-24T00:16:37.867Z,7.63
2022-08-24T00:19:04.872Z,7.32
2022-08-24T00:21:31.290Z,7.25
2022-08-24T00:23:57.686Z,6.70
2022-08-24T00:26:28.747Z,6.78
2022-08-24T00:28:55.803Z,6.40
2022-08-24T00:31:22.345Z,6.78
2022-08-24T00:33:48.909Z,8.23
2022-08-24T00:36:15.709Z,7.30
2022-08-24T00:38:42.354Z,8.40
2022-08-24T00:41:08.880Z,9.15
2022-08-24T00:43:35.860Z,9.95
2022-08-24T00:46:18.372Z,9.77
2022-08-24T00:48:45.965Z,7.80
2022-08-24T00:51:17.215Z,8.68
2022-08-24T00:53:46.816Z,7.38
2022-08-24T00:56:22.181Z,6.53
2022-08-24T00:58:56.991Z,7.10
2022-08-24T01:01:24.756Z,6.80
2022-08-24T01:03:56.646Z,6.10
2022-08-24T01:06:23.786Z,6.38
2022-08-24T01:08:56.345Z,5.10
2022-08-24T01:11:26.272Z,5.47
2022-08-24T01:13:53.308Z,7.32
2022-08-24T01:16:40.910Z,5.70
2022-08-24T01:19:35.113Z,5.55
2022-08-24T01:22:01.515Z,5.95
2022-08-24T01:24:27.977Z,6.30
2022-08-24T01:26:54.409Z,6.13
2022-08-24T01:29:23.605Z,6.78
2022-08-24T01:31:50.475Z,6.32
2022-08-24T01:34:17.438Z,5.97
2022-08-24T01:36:45.894Z,6.10
2022-08-24T01:39:12.302Z,7.10
2022-08-24T01:41:38.735Z,7.50
2022-08-24T01:44:05.614Z,7.05
2022-08-24T01:46:32.726Z,6.55
2022-08-24T01:48:59.305Z,5.75
2022-08-24T01:51:28.984Z,6.35
2022-08-24T01:53:55.405Z,5.78
2022-08-24T01:56:21.996Z,5.38
2022-08-24T01:58:49.484Z,5.82
2022-08-24T02:01:17.670Z,6.45
2022-08-24T02:03:44.157Z,6.28
2022-08-24T02:06:10.789Z,5.38
2022-08-24T02:08:37.165Z,5.90
2022-08-24T02:11:08.607Z,6.25
2022-08-24T02:13:39.612Z,5.50
2022-08-24T02:16:07.003Z,5.65
2022-08-24T02:18:35.376Z,7.97
2022-08-24T02:21:02.253Z,7.45
2022-08-24T02:23:29.173Z,7.32
2022-08-24T02:25:56.217Z,6.68
2022-08-24T02:28:23.064Z,7.20
2022-08-24T02:30:50.413Z,7.40
2022-08-24T02:33:17.375Z,9.77
2022-08-24T02:35:43.800Z,7.40
2022-08-24T02:38:10.548Z,8.02
2022-08-24T02:40:38.124Z,7.70
2022-08-24T02:43:06.003Z,8.23
2022-08-24T02:45:33.448Z,9.50
2022-08-24T02:47:59.973Z,8.63
2022-08-24T02:50:27.562Z,7.78
2022-08-24T02:52:54.291Z,7.22
2022-08-24T02:55:20.861Z,7.60
2022-08-24T02:57:50.846Z,8.85
2022-08-24T03:00:18.868Z,9.32
2022-08-24T03:05:17.224Z,8.35
2022-08-24T03:07:44.622Z,7.95
2022-08-24T03:10:11.276Z,8.55
2022-08-24T03:12:38.423Z,8.80
2022-08-24T03:15:06.664Z,9.27
2022-08-24T03:17:33.702Z,9.82
2022-08-24T03:20:00.764Z,9.30
2022-08-24T03:22:28.342Z,8.85
2022-08-24T03:24:54.773Z,8.38
2022-08-24T03:27:21.456Z,8.07
2022-08-24T03:29:48.078Z,9.20
2022-08-24T03:32:16.544Z,9.18
2022-08-24T03:34:43.121Z,9.10
2022-08-24T03:37:09.852Z,8.85
2022-08-24T03:39:37.101Z,8.27
2022-08-24T03:42:03.808Z,9.63
2022-08-24T03:44:30.445Z,10.25
2022-08-24T03:46:57.372Z,10.27
2022-08-24T03:49:25.990Z,9.20
2022-08-24T03:51:52.892Z,14.25
2022-08-24T03:54:22.149Z,10.90
2022-08-24T03:56:49.128Z,10.40
2022-08-24T03:59:19.733Z,9.27
2022-08-24T04:01:48.049Z,10.32
2022-08-24T04:04:15.046Z,11.25
2022-08-24T04:06:46.632Z,11.00
2022-08-24T04:09:15.113Z,12.75
2022-08-24T04:11:45.461Z,11.68
2022-08-24T04:14:23.593Z,11.48
2022-08-24T04:16:58.255Z,10.85
2022-08-24T04:19:31.346Z,13.07
2022-08-24T04:21:58.518Z,13.02
2022-08-24T04:24:25.802Z,12.38
2022-08-24T04:26:52.815Z,13.07
2022-08-24T04:29:20.377Z,11.35
2022-08-24T04:31:52.315Z,12.02
2022-08-24T04:34:19.681Z,12.60
2022-08-24T04:36:46.711Z,13.80
2022-08-24T04:39:14.009Z,14.57
2022-08-24T04:41:50.602Z,14.15
2022-08-24T04:44:19.773Z,12.52
2022-08-24T04:46:46.672Z,14.45
2022-08-24T04:49:13.065Z,14.40
2022-08-24T04:51:39.452Z,14.77
2022-08-24T04:54:08.241Z,14.10
2022-08-24T04:56:35.397Z,14.25
2022-08-24T04:59:02.301Z,19.67
2022-08-24T05:01:29.656Z,20.85
2022-08-24T05:03:56.984Z,19.45
2022-08-24T05:06:25.512Z,21.63
2022-08-24T05:08:51.991Z,22.48
2022-08-24T05:11:20.753Z,21.98
2022-08-24T05:13:47.949Z,24.00
2022-08-24T05:16:16.254Z,21.88
2022-08-24T05:18:43.712Z,20.80
2022-08-24T05:21:11.344Z,19.13
2022-08-24T05:23:39.137Z,18.80
2022-08-24T05:26:14.293Z,20.48
2022-08-24T05:28:40.802Z,19.27
2022-08-24T05:31:09.010Z,21.63
2022-08-24T05:33:35.556Z,17.75
2022-08-24T05:36:02.358Z,17.65
2022-08-24T05:38:28.840Z,16.73
2022-08-24T05:40:55.256Z,19.58
2022-08-24T05:43:24.684Z,19.02
2022-08-24T05:45:51.129Z,19.20
2022-08-24T05:48:17.701Z,21.75
2022-08-24T05:51:13.080Z,20.30
2022-08-24T05:53:49.764Z,18.83
2022-08-24T05:56:17.183Z,19.10
2022-08-24T05:58:44.123Z,19.17
2022-08-24T06:01:15.558Z,19.25
2022-08-24T06:03:42.416Z,23.70
2022-08-24T06:06:13.461Z,21.83
2022-08-24T06:08:41.909Z,21.10
2022-08-24T06:11:10.518Z,21.48
2022-08-24T06:13:37.676Z,23.77
2022-08-24T06:16:20.775Z,26.42
2022-08-24T06:18:49.582Z,21.38
2022-08-24T06:21:17.624Z,20.77
2022-08-24T06:23:44.858Z,23.42
2022-08-24T06:26:30.088Z,20.88
2022-08-24T06:28:56.794Z,22.52
2022-08-24T06:31:27.319Z,25.33
2022-08-24T06:33:54.562Z,22.23
2022-08-24T06:36:22.808Z,20.98
2022-08-24T06:38:49.421Z,19.38
2022-08-24T06:41:16.785Z,18.23
2022-08-24T06:43:43.165Z,20.92
2022-08-24T06:46:11.403Z,18.58
2022-08-24T06:48:41.321Z,20.60
2022-08-24T06:51:08.965Z,18.90
2022-08-24T06:53:35.855Z,19.38
2022-08-24T06:56:04.579Z,21.83
2022-08-24T06:58:33.152Z,19.73
2022-08-24T07:01:07.741Z,19.35
2022-08-24T07:03:34.125Z,12.95
2022-08-24T07:06:14.165Z,10.70
2022-08-24T07:08:42.440Z,12.13
2022-08-24T07:11:10.644Z,14.02
2022-08-24T07:13:37.462Z,10.73
2022-08-24T07:16:04.686Z,15.65
2022-08-24T07:18:33.252Z,11.07
2022-08-24T07:21:02.407Z,11.43
2022-08-24T07:23:42.849Z,7.82
2022-08-24T07:26:21.779Z,12.55
2022-08-24T07:28:51.660Z,13.15
2022-08-24T07:31:19.198Z,10.02
2022-08-24T07:33:53.318Z,9.63
2022-08-24T07:36:22.003Z,9.60
2022-08-24T07:38:52.271Z,9.98
2022-08-24T07:44:06.914Z,10.45
2022-08-24T07:46:33.466Z,9.15
2022-08-24T07:49:10.976Z,8.02
2022-08-24T07:51:44.933Z,7.20
2022-08-24T07:54:13.644Z,4.88
2022-08-24T07:56:42.754Z,6.07
2022-08-24T07:59:13.078Z,4.32
2022-08-24T08:01:40.653Z,4.45
2022-08-24T08:04:09.732Z,5.05
2022-08-24T08:06:36.749Z,4.60
2022-08-24T08:09:05.165Z,3.38
2022-08-24T08:11:32.142Z,4.50
2022-08-24T08:13:58.833Z,5.30
2022-08-24T08:16:25.354Z,4.93
2022-08-24T08:19:09.254Z,3.58
2022-08-24T08:22:00.991Z,4.15
2022-08-24T08:24:27.760Z,3.83
2022-08-24T08:26:57.655Z,4.20
2022-08-24T08:29:32.121Z,3.83
2022-08-24T08:31:58.921Z,3.70
2022-08-24T08:34:26.178Z,4.28
2022-08-24T08:36:55.716Z,3.88
2022-08-24T08:39:23.393Z,3.45
2022-08-24T08:42:12.641Z,3.00
2022-08-24T08:44:59.692Z,2.70
2022-08-24T08:47:44.851Z,2.72
2022-08-24T08:50:13.845Z,2.33
2022-08-24T08:52:59.176Z,2.60
2022-08-24T08:55:44.603Z,2.20
2022-08-24T08:58:14.072Z,2.33
2022-08-24T09:00:44.538Z,1.83
2022-08-24T09:03:19.965Z,2.10
2022-08-24T09:06:32.704Z,1.83
2022-08-24T09:08:59.376Z,1.58
2022-08-24T09:11:45.427Z,2.00
2022-08-24T09:14:12.041Z,1.50
2022-08-24T09:16:48.841Z,1.88
2022-08-24T09:19:26.051Z,1.55
2022-08-24T09:22:03.566Z,1.88
2022-08-24T09:24:43.761Z,1.67
2022-08-24T09:27:34.200Z,1.50
2022-08-24T09:30:06.998Z,1.50
2022-08-24T09:32:51.482Z,1.35
2022-08-24T09:35:27.008Z,1.30
2022-08-24T09:38:12.296Z,1.00
2022-08-24T09:40:57.422Z,1.23
2022-08-24T09:43:39.104Z,1.30
2022-08-24T09:46:34.104Z,1.00
2022-08-24T09:49:26.914Z,0.90
2022-08-24T09:52:01.678Z,0.90
2022-08-24T09:54:43.334Z,1.20
2022-08-24T09:57:12.539Z,1.15
2022-08-24T09:59:39.617Z,1.25
2022-08-24T10:02:06.050Z,1.23
2022-08-24T10:04:45.840Z,1.23
2022-08-24T10:07:24.064Z,1.50
2022-08-24T10:10:00.691Z,1.10
2022-08-24T10:12:33.183Z,1.50
2022-08-24T10:15:11.562Z,1.30
2022-08-24T10:17:57.596Z,1.58
2022-08-24T10:20:42.291Z,1.30
2022-08-24T10:23:27.685Z,1.23
2022-08-24T10:25:57.149Z,1.02
2022-08-24T10:28:42.253Z,1.50
2022-08-24T10:31:12.895Z,1.30
2022-08-24T10:33:58.013Z,1.00
2022-08-24T10:36:24.426Z,1.10
2022-08-24T10:39:09.570Z,1.17
2022-08-24T10:41:39.267Z,1.10
2022-08-24T10:44:12.542Z,1.20
2022-08-24T10:46:47.988Z,0.88
2022-08-24T10:49:32.601Z,1.15
2022-08-24T10:51:59.016Z,1.10
2022-08-24T10:54:25.486Z,1.00
2022-08-24T10:57:00.673Z,0.90
2022-08-24T10:59:35.508Z,1.17
2022-08-24T11:02:09.552Z,1.00
2022-08-24T11:04:39.581Z,0.98
2022-08-24T11:07:24.231Z,1.20
2022-08-24T11:09:53.262Z,0.98
2022-08-24T11:12:23.672Z,1.30
2022-08-24T11:14:50.515Z,1.02
2022-08-24T11:17:18.195Z,0.82
2022-08-24T11:19:45.161Z,1.20
2022-08-24T11:22:30.376Z,0.80
2022-08-24T11:25:03.020Z,1.15
2022-08-24T11:27:33.349Z,0.80
2022-08-24T11:30:01.769Z,1.10
2022-08-24T11:32:33.704Z,1.02
2022-08-24T11:35:02.046Z,1.40
2022-08-24T11:37:33.059Z,1.15
2022-08-24T11:39:59.651Z,0.90
2022-08-24T11:42:44.870Z,1.25
2022-08-24T11:45:17.077Z,1.10
2022-08-24T11:47:59.787Z,1.30
2022-08-24T11:50:32.086Z,1.20
2022-08-24T11:53:01.577Z,1.30
2022-08-24T11:55:47.116Z,1.10
2022-08-24T11:58:29.653Z,1.30
2022-08-24T12:01:01.018Z,1.35
2022-08-24T12:03:34.530Z,1.30
2022-08-24T12:06:03.761Z,1.20
2022-08-24T12:08:33.148Z,1.10
2022-08-24T12:11:02.529Z,1.20
2022-08-24T12:13:37.404Z,1.10
2022-08-24T12:16:16.169Z,1.10
2022-08-24T12:18:57.762Z,1.27
2022-08-24T12:21:25.699Z,1.08
2022-08-24T12:23:54.397Z,1.27
2022-08-24T12:26:34.899Z,1.30
2022-08-24T12:29:08.095Z,1.50
2022-08-24T12:31:38.518Z,1.42
2022-08-24T12:34:12.487Z,1.20
2022-08-24T12:36:44.802Z,1.27
2022-08-24T12:39:14.453Z,1.23
2022-08-24T12:42:04.374Z,1.15
2022-08-24T12:45:00.196Z,1.38
2022-08-24T12:47:31.142Z,1.17
2022-08-24T12:50:01.349Z,1.40
2022-08-24T12:52:47.696Z,1.33
2022-08-24T12:55:31.110Z,1.20
2022-08-24T12:57:57.546Z,1.30
2022-08-24T13:00:32.042Z,1.55
2022-08-24T13:03:05.388Z,1.05
2022-08-24T13:05:43.628Z,1.58
2022-08-24T13:08:12.212Z,1.42
2022-08-24T13:10:44.076Z,0.98
2022-08-24T13:13:15.654Z,1.38
2022-08-24T13:15:45.296Z,1.10
2022-08-24T13:18:11.928Z,1.17
2022-08-24T13:20:41.410Z,1.33
2022-08-24T13:23:18.929Z,1.30
2022-08-24T13:25:48.153Z,1.08
2022-08-24T13:28:20.678Z,1.40
2022-08-24T13:30:53.485Z,1.30
2022-08-24T13:33:38.805Z,1.25
2022-08-24T13:36:34.956Z,1.00
2022-08-24T13:39:01.373Z,1.15
2022-08-24T13:41:51.089Z,1.40
2022-08-24T13:44:27.809Z,1.20
2022-08-24T13:46:57.552Z,1.20
2022-08-24T13:49:38.876Z,1.23
2022-08-24T13:52:19.831Z,1.27
2022-08-24T13:54:59.424Z,1.05
2022-08-24T13:57:32.380Z,1.17
2022-08-24T14:00:04.958Z,1.17
2022-08-24T14:02:50.305Z,1.55
2022-08-24T14:05:54.210Z,1.38
2022-08-24T14:08:39.749Z,1.23
2022-08-24T14:11:16.264Z,1.30
2022-08-24T14:13:58.288Z,0.90
2022-08-24T14:16:52.373Z,1.20
2022-08-24T14:19:37.765Z,0.80
2022-08-24T14:22:10.309Z,0.82
2022-08-24T14:24:48.812Z,0.88
2022-08-24T14:27:34.025Z,1.05
2022-08-24T14:30:18.709Z,0.90
2022-08-24T14:32:57.418Z,0.90
2022-08-24T14:35:39.576Z,0.93
2022-08-24T14:38:18.228Z,1.27
2022-08-24T14:41:03.307Z,1.17
2022-08-24T14:43:41.885Z,0.70
2022-08-24T14:46:16.415Z,1.20
2022-08-24T14:48:50.658Z,1.20
2022-08-24T14:51:25.222Z,1.00
2022-08-24T14:53:51.701Z,1.13
2022-08-24T14:56:36.741Z,1.20
2022-08-24T14:59:11.633Z,1.10
2022-08-24T15:01:43.584Z,1.30
2022-08-24T15:04:10.758Z,1.00
2022-08-24T15:06:53.659Z,1.52
2022-08-24T15:09:25.297Z,0.93
2022-08-24T15:11:54.728Z,0.93
2022-08-24T15:14:24.701Z,1.20
2022-08-24T15:17:02.425Z,1.27
2022-08-24T15:19:47.664Z,1.10
2022-08-24T15:22:21.536Z,1.20
2022-08-24T15:24:54.920Z,1.17
2022-08-24T15:27:37.477Z,1.00
2022-08-24T15:30:06.243Z,0.93
2022-08-24T15:32:43.570Z,1.20
2022-08-24T15:35:22.093Z,1.27
2022-08-24T15:37:48.492Z,1.00
2022-08-24T15:40:22.092Z,0.90
2022-08-24T15:42:48.919Z,1.00
2022-08-24T15:45:15.908Z,1.05
2022-08-24T15:47:46.517Z,1.60
2022-08-24T15:50:21.622Z,1.20
2022-08-24T15:53:08.273Z,1.30
2022-08-24T15:55:37.107Z,1.10
2022-08-24T15:58:21.867Z,1.25
2022-08-24T16:01:07.039Z,1.05
2022-08-24T16:03:46.325Z,1.08
2022-08-24T16:06:17.994Z,1.30
2022-08-24T16:08:55.219Z,1.33
2022-08-24T16:11:27.643Z,1.10
2022-08-24T16:13:54.234Z,0.98
2022-08-24T16:16:29.748Z,1.30
2022-08-24T16:19:02.190Z,1.05
2022-08-24T16:21:49.961Z,1.58
2022-08-24T16:24:20.148Z,1.45
2022-08-24T16:26:46.479Z,1.30
2022-08-24T16:29:32.600Z,1.25
2022-08-24T16:32:08.528Z,1.38
2022-08-24T16:34:37.210Z,1.20
2022-08-24T16:37:04.692Z,1.27
2022-08-24T16:39:31.307Z,1.38
2022-08-24T16:41:59.352Z,1.23
2022-08-24T16:44:32.293Z,1.05
2022-08-24T16:46:58.729Z,1.48
2022-08-24T16:49:25.345Z,1.10
2022-08-24T16:51:51.886Z,1.00
2022-08-24T16:54:19.055Z,1.02
2022-08-24T16:56:46.233Z,1.50
2022-08-24T16:59:18.789Z,1.15
2022-08-24T17:01:45.303Z,1.10
2022-08-24T17:04:11.669Z,1.30
2022-08-24T17:06:38.100Z,1.50
2022-08-24T17:09:04.598Z,1.10
2022-08-24T17:11:31.035Z,1.40
2022-08-24T17:13:57.481Z,1.10
2022-08-24T17:16:23.995Z,1.90
2022-08-24T17:18:50.421Z,1.50
2022-08-24T17:21:17.694Z,1.60
2022-08-24T17:23:44.367Z,1.50
2022-08-24T17:26:20.593Z,1.83
2022-08-24T17:28:49.070Z,1.50
2022-08-24T17:31:15.659Z,1.50
2022-08-24T17:33:42.302Z,1.13
2022-08-24T17:36:11.463Z,1.30
2022-08-24T17:38:50.465Z,1.17
2022-08-24T17:41:21.509Z,1.30
2022-08-24T17:43:47.989Z,1.50
2022-08-24T17:46:14.799Z,1.42
2022-08-24T17:48:45.178Z,1.27
2022-08-24T17:51:11.766Z,1.45
2022-08-24T17:53:38.201Z,1.38
2022-08-24T17:56:06.073Z,1.50
2022-08-24T17:58:32.665Z,1.67
2022-08-24T18:00:59.162Z,1.30
2022-08-24T18:03:25.748Z,1.60
2022-08-24T18:05:52.512Z,1.63
2022-08-24T18:08:18.891Z,2.05
2022-08-24T18:10:45.998Z,1.65
2022-08-24T18:13:15.190Z,1.50
2022-08-24T18:15:41.875Z,1.80
2022-08-24T18:18:09.367Z,1.52
2022-08-24T18:20:38.086Z,1.45
2022-08-24T18:23:04.910Z,1.48
2022-08-24T18:25:39.777Z,1.67
2022-08-24T18:28:06.141Z,1.55
2022-08-24T18:30:32.560Z,1.65
2022-08-24T18:33:01.658Z,5.50
2022-08-24T18:35:28.471Z,4.07
2022-08-24T18:37:56.290Z,2.50
2022-08-24T18:40:23.153Z,1.70
2022-08-24T18:42:50.641Z,1.90
2022-08-24T18:45:17.487Z,1.50
2022-08-24T18:47:44.160Z,1.30
2022-08-24T18:50:12.099Z,1.58
2022-08-24T18:52:42.533Z,1.70
2022-08-24T18:55:09.552Z,1.50
2022-08-24T18:57:35.984Z,1.52
2022-08-24T19:00:03.245Z,1.42
2022-08-24T19:02:35.968Z,1.60
2022-08-24T19:05:31.460Z,1.73
2022-08-24T19:07:57.829Z,1.38
2022-08-24T19:10:25.933Z,1.40
2022-08-24T19:12:53.939Z,1.38
2022-08-24T19:15:34.524Z,1.40
2022-08-24T19:18:07.017Z,1.50
2022-08-24T19:20:33.924Z,1.45
2022-08-24T19:23:04.894Z,1.65
2022-08-24T19:25:31.837Z,1.50
2022-08-24T19:27:58.593Z,1.73
2022-08-24T19:30:27.829Z,1.55
2022-08-24T19:32:57.976Z,1.38
2022-08-24T19:35:25.730Z,1.23
2022-08-24T19:37:52.426Z,1.63
2022-08-24T19:40:20.873Z,1.77
2022-08-24T19:42:50.671Z,1.80
2022-08-24T19:45:37.354Z,1.33
2022-08-24T19:48:04.593Z,1.75
2022-08-24T19:50:35.571Z,1.65
2022-08-24T19:53:02.951Z,1.67
2022-08-24T19:55:29.689Z,1.50
2022-08-24T19:58:03.325Z,1.83
2022-08-24T20:00:35.859Z,1.50
2022-08-24T20:03:04.545Z,1.50
2022-08-24T20:05:31.153Z,1.92
2022-08-24T20:07:58.513Z,2.00
2022-08-24T20:10:25.349Z,2.03
2022-08-24T20:12:51.924Z,2.00
2022-08-24T20:15:18.780Z,1.85
2022-08-24T20:17:45.382Z,1.50
2022-08-24T20:20:15.565Z,1.92
2022-08-24T20:22:41.940Z,2.17
2022-08-24T20:25:08.576Z,2.00
2022-08-24T20:27:35.045Z,2.20
2022-08-24T20:30:01.522Z,2.08
2022-08-24T20:32:29.398Z,1.90
2022-08-24T20:34:55.812Z,1.50
2022-08-24T20:37:24.421Z,1.92
2022-08-24T20:39:50.922Z,1.60
2022-08-24T20:42:21.079Z,2.00
2022-08-24T20:44:48.175Z,1.85
2022-08-24T20:47:14.889Z,1.70
2022-08-24T20:49:41.505Z,1.85
2022-08-24T20:52:08.287Z,2.47
2022-08-24T20:54:39.346Z,1.98
2022-08-24T20:57:07.388Z,1.70
2022-08-24T20:59:34.849Z,2.10
2022-08-24T21:02:02.224Z,2.00
2022-08-24T21:04:29.393Z,2.20
2022-08-24T21:06:56.829Z,2.33
2022-08-24T21:09:23.501Z,2.53
2022-08-24T21:11:50.048Z,2.70
2022-08-24T21:14:16.845Z,2.63
2022-08-24T21:16:43.498Z,2.55
2022-08-24T21:19:11.674Z,2.90
2022-08-24T21:21:42.262Z,2.60
2022-08-24T21:24:09.713Z,2.70
2022-08-24T21:26:36.194Z,3.00
2022-08-24T21:29:03.765Z,2.08
2022-08-24T21:31:30.235Z,3.05
2022-08-24T21:34:15.485Z,3.45
2022-08-24T21:36:41.946Z,2.92
2022-08-24T21:39:10.981Z,2.60
2022-08-24T21:41:38.417Z,2.90
2022-08-24T21:44:04.862Z,2.80
2022-08-24T21:46:36.218Z,3.08
2022-08-24T21:49:03.657Z,3.23
2022-08-24T21:51:30.124Z,3.33
2022-08-24T21:53:59.786Z,2.65
2022-08-24T21:56:28.032Z,3.13
2022-08-24T21:58:54.392Z,3.85
2022-08-24T22:01:21.063Z,3.50
2022-08-24T22:03:47.633Z,3.28
2022-08-24T22:06:13.989Z,3.67
2022-08-24T22:08:42.480Z,3.58
2022-08-24T22:11:09.804Z,3.65
2022-08-24T22:13:36.309Z,3.03
2022-08-24T22:16:03.205Z,2.92
2022-08-24T22:18:30.797Z,3.00
2022-08-24T22:20:57.295Z,3.30
2022-08-24T22:23:24.163Z,3.30
2022-08-24T22:25:51.728Z,3.92
2022-08-24T22:28:18.181Z,3.13
2022-08-24T22:30:47.943Z,3.78
2022-08-24T22:33:15.818Z,3.30
2022-08-24T22:35:45.063Z,3.42
2022-08-24T22:38:12.328Z,3.58
2022-08-24T22:40:38.778Z,4.38
2022-08-24T22:43:05.566Z,3.40
2022-08-24T22:45:32.118Z,3.35
2022-08-24T22:47:58.516Z,3.58
2022-08-24T22:50:25.012Z,3.50
2022-08-24T22:52:52.432Z,3.70
2022-08-24T22:55:18.901Z,4.53
2022-08-24T22:57:47.025Z,3.50
2022-08-24T23:00:17.742Z,3.42
2022-08-24T23:02:44.190Z,3.40
2022-08-24T23:05:10.662Z,3.80
2022-08-24T23:07:37.182Z,3.58
2022-08-24T23:10:04.733Z,3.25
2022-08-24T23:12:32.582Z,3.05
2022-08-24T23:14:59.072Z,3.03
2022-08-24T23:17:25.440Z,3.47
2022-08-24T23:20:01.409Z,3.30
2022-08-24T23:22:29.553Z,3.63
2022-08-24T23:24:56.028Z,3.10
2022-08-24T23:27:22.489Z,3.47
2022-08-24T23:29:49.375Z,3.45
2022-08-24T23:32:17.852Z,3.65
2022-08-24T23:34:45.580Z,4.03
2022-08-24T23:37:12.557Z,3.50
2022-08-24T23:39:38.958Z,4.07
2022-08-24T23:42:06.897Z,3.53
2022-08-24T23:44:33.836Z,3.50
2022-08-24T23:47:00.837Z,3.55
2022-08-24T23:49:28.002Z,3.97
2022-08-24T23:51:54.584Z,3.92
2022-08-24T23:54:21.684Z,3.80
2022-08-24T23:56:49.122Z,3.50
2022-08-24T23:59:17.198Z,3.13
